sensor_id;sensor_type;location;lat;lon;timestamp;P1;durP1;ratioP1;P2;durP2;ratioP2
70842;SDS011;58469;52.312;16.970;2024-03-07T00:02:57;21.80;;;12.70;;
70842;SDS011;58469;52.312;16.970;2024-03-07T00:05:57;19.07;;;10.67;;
70842;SDS011;58469;52.312;16.970;2024-03-07T00:08:58;23.67;;;9.57;;
70842;SDS011;58469;52.312;16.970;2024-03-07T00:11:58;25.67;;;13.70;;
70842;SDS011;58469;52.312;16.970;2024-03-07T00:14:59;23.38;;;12.45;;
70842;SDS011;58469;52.312;16.970;2024-03-07T00:17:59;24.00;;;12.37;;
70842;SDS011;58469;52.312;16.970;2024-03-07T00:21:00;26.63;;;13.32;;
70842;SDS011;58469;52.312;16.970;2024-03-07T00:24:01;24.53;;;13.00;;
70842;SDS011;58469;52.312;16.970;2024-03-07T00:27:01;21.27;;;11.57;;
70842;SDS011;58469;52.312;16.970;2024-03-07T00:30:02;24.30;;;12.47;;
70842;SDS011;58469;52.312;16.970;2024-03-07T00:33:04;27.10;;;14.05;;
70842;SDS011;58469;52.312;16.970;2024-03-07T00:36:05;20.97;;;11.77;;
70842;SDS011;58469;52.312;16.970;2024-03-07T00:39:06;22.27;;;12.33;;
70842;SDS011;58469;52.312;16.970;2024-03-07T00:42:11;22.98;;;10.60;;
70842;SDS011;58469;52.312;16.970;2024-03-07T00:45:12;24.83;;;13.57;;
70842;SDS011;58469;52.312;16.970;2024-03-07T00:48:12;24.63;;;13.03;;
70842;SDS011;58469;52.312;16.970;2024-03-07T00:51:13;23.27;;;13.50;;
70842;SDS011;58469;52.312;16.970;2024-03-07T00:54:13;24.80;;;11.38;;
70842;SDS011;58469;52.312;16.970;2024-03-07T00:57:14;17.00;;;9.80;;
70842;SDS011;58469;52.312;16.970;2024-03-07T01:00:14;21.83;;;12.20;;
70842;SDS011;58469;52.312;16.970;2024-03-07T01:03:17;26.33;;;12.23;;
70842;SDS011;58469;52.312;16.970;2024-03-07T01:06:17;19.60;;;10.93;;
70842;SDS011;58469;52.312;16.970;2024-03-07T01:09:20;24.27;;;12.20;;
70842;SDS011;58469;52.312;16.970;2024-03-07T01:12:22;23.80;;;11.88;;
70842;SDS011;58469;52.312;16.970;2024-03-07T01:15:31;22.40;;;12.33;;
70842;SDS011;58469;52.312;16.970;2024-03-07T01:18:32;23.50;;;12.07;;
70842;SDS011;58469;52.312;16.970;2024-03-07T01:21:35;21.90;;;11.70;;
70842;SDS011;58469;52.312;16.970;2024-03-07T01:24:36;22.27;;;12.47;;
70842;SDS011;58469;52.312;16.970;2024-03-07T01:27:36;24.67;;;12.37;;
70842;SDS011;58469;52.312;16.970;2024-03-07T01:30:36;18.37;;;10.77;;
70842;SDS011;58469;52.312;16.970;2024-03-07T01:33:37;22.15;;;12.05;;
70842;SDS011;58469;52.312;16.970;2024-03-07T01:36:37;21.35;;;11.27;;
70842;SDS011;58469;52.312;16.970;2024-03-07T01:39:38;24.10;;;11.20;;
70842;SDS011;58469;52.312;16.970;2024-03-07T01:42:38;24.53;;;11.83;;
70842;SDS011;58469;52.312;16.970;2024-03-07T01:45:38;24.37;;;12.27;;
70842;SDS011;58469;52.312;16.970;2024-03-07T01:48:39;24.47;;;12.07;;
70842;SDS011;58469;52.312;16.970;2024-03-07T01:51:40;23.85;;;12.68;;
70842;SDS011;58469;52.312;16.970;2024-03-07T01:54:40;25.13;;;12.82;;
70842;SDS011;58469;52.312;16.970;2024-03-07T01:57:41;30.60;;;13.57;;
70842;SDS011;58469;52.312;16.970;2024-03-07T02:00:42;23.73;;;11.57;;
70842;SDS011;58469;52.312;16.970;2024-03-07T02:03:43;24.38;;;12.40;;
70842;SDS011;58469;52.312;16.970;2024-03-07T02:06:44;28.00;;;13.97;;
70842;SDS011;58469;52.312;16.970;2024-03-07T02:09:45;24.48;;;12.98;;
70842;SDS011;58469;52.312;16.970;2024-03-07T02:12:45;24.30;;;11.40;;
70842;SDS011;58469;52.312;16.970;2024-03-07T02:15:45;23.80;;;11.90;;
70842;SDS011;58469;52.312;16.970;2024-03-07T02:18:46;21.93;;;11.03;;
70842;SDS011;58469;52.312;16.970;2024-03-07T02:21:46;23.42;;;12.05;;
70842;SDS011;58469;52.312;16.970;2024-03-07T02:24:47;26.70;;;13.63;;
70842;SDS011;58469;52.312;16.970;2024-03-07T02:27:47;24.00;;;13.03;;
70842;SDS011;58469;52.312;16.970;2024-03-07T02:30:47;25.90;;;12.27;;
70842;SDS011;58469;52.312;16.970;2024-03-07T02:33:48;23.03;;;12.40;;
70842;SDS011;58469;52.312;16.970;2024-03-07T02:36:48;25.40;;;12.57;;
70842;SDS011;58469;52.312;16.970;2024-03-07T02:39:48;25.27;;;12.47;;
70842;SDS011;58469;52.312;16.970;2024-03-07T02:42:49;24.23;;;11.63;;
70842;SDS011;58469;52.312;16.970;2024-03-07T02:45:50;23.13;;;12.23;;
70842;SDS011;58469;52.312;16.970;2024-03-07T02:48:50;25.97;;;12.40;;
70842;SDS011;58469;52.312;16.970;2024-03-07T02:51:50;24.53;;;12.87;;
70842;SDS011;58469;52.312;16.970;2024-03-07T02:54:51;22.23;;;12.30;;
70842;SDS011;58469;52.312;16.970;2024-03-07T02:57:51;22.70;;;12.67;;
70842;SDS011;58469;52.312;16.970;2024-03-07T03:00:58;23.40;;;12.00;;
70842;SDS011;58469;52.312;16.970;2024-03-07T03:04:00;21.97;;;11.60;;
70842;SDS011;58469;52.312;16.970;2024-03-07T03:07:00;24.10;;;13.17;;
70842;SDS011;58469;52.312;16.970;2024-03-07T03:10:00;27.13;;;13.60;;
70842;SDS011;58469;52.312;16.970;2024-03-07T03:13:05;26.23;;;12.90;;
70842;SDS011;58469;52.312;16.970;2024-03-07T03:16:06;23.80;;;12.98;;
70842;SDS011;58469;52.312;16.970;2024-03-07T03:19:08;24.67;;;12.50;;
70842;SDS011;58469;52.312;16.970;2024-03-07T03:22:09;25.38;;;12.60;;
70842;SDS011;58469;52.312;16.970;2024-03-07T03:25:09;23.43;;;12.50;;
70842;SDS011;58469;52.312;16.970;2024-03-07T03:28:09;22.63;;;11.57;;
70842;SDS011;58469;52.312;16.970;2024-03-07T03:31:10;21.27;;;12.10;;
70842;SDS011;58469;52.312;16.970;2024-03-07T03:34:10;23.80;;;12.83;;
70842;SDS011;58469;52.312;16.970;2024-03-07T03:37:10;21.47;;;11.57;;
70842;SDS011;58469;52.312;16.970;2024-03-07T03:40:11;21.38;;;12.18;;
70842;SDS011;58469;52.312;16.970;2024-03-07T03:43:15;24.27;;;12.68;;
70842;SDS011;58469;52.312;16.970;2024-03-07T03:46:15;19.55;;;10.20;;
70842;SDS011;58469;52.312;16.970;2024-03-07T03:49:16;26.57;;;13.43;;
70842;SDS011;58469;52.312;16.970;2024-03-07T03:52:16;22.87;;;13.07;;
70842;SDS011;58469;52.312;16.970;2024-03-07T03:55:16;25.47;;;13.00;;
70842;SDS011;58469;52.312;16.970;2024-03-07T03:58:17;24.63;;;13.53;;
70842;SDS011;58469;52.312;16.970;2024-03-07T04:01:17;26.20;;;12.90;;
70842;SDS011;58469;52.312;16.970;2024-03-07T04:04:17;21.13;;;11.30;;
70842;SDS011;58469;52.312;16.970;2024-03-07T04:07:18;24.10;;;13.67;;
70842;SDS011;58469;52.312;16.970;2024-03-07T04:10:19;25.85;;;13.90;;
70842;SDS011;58469;52.312;16.970;2024-03-07T04:13:20;23.77;;;11.70;;
70842;SDS011;58469;52.312;16.970;2024-03-07T04:16:22;29.75;;;13.40;;
70842;SDS011;58469;52.312;16.970;2024-03-07T04:19:23;23.48;;;12.77;;
70842;SDS011;58469;52.312;16.970;2024-03-07T04:22:25;24.07;;;12.90;;
70842;SDS011;58469;52.312;16.970;2024-03-07T04:25:26;24.58;;;12.63;;
70842;SDS011;58469;52.312;16.970;2024-03-07T04:28:28;24.67;;;13.38;;
70842;SDS011;58469;52.312;16.970;2024-03-07T04:31:28;22.93;;;13.50;;
70842;SDS011;58469;52.312;16.970;2024-03-07T04:34:29;29.37;;;14.13;;
70842;SDS011;58469;52.312;16.970;2024-03-07T04:37:33;28.95;;;12.75;;
70842;SDS011;58469;52.312;16.970;2024-03-07T04:40:36;25.43;;;13.20;;
70842;SDS011;58469;52.312;16.970;2024-03-07T04:43:37;28.25;;;12.40;;
70842;SDS011;58469;52.312;16.970;2024-03-07T04:46:38;29.63;;;14.17;;
70842;SDS011;58469;52.312;16.970;2024-03-07T04:49:42;28.73;;;14.50;;
70842;SDS011;58469;52.312;16.970;2024-03-07T04:52:43;29.15;;;13.63;;
70842;SDS011;58469;52.312;16.970;2024-03-07T04:55:45;27.05;;;13.18;;
70842;SDS011;58469;52.312;16.970;2024-03-07T04:58:45;26.30;;;13.27;;
70842;SDS011;58469;52.312;16.970;2024-03-07T05:01:48;31.33;;;15.02;;
70842;SDS011;58469;52.312;16.970;2024-03-07T05:04:52;23.77;;;12.38;;
70842;SDS011;58469;52.312;16.970;2024-03-07T05:07:52;24.93;;;13.57;;
70842;SDS011;58469;52.312;16.970;2024-03-07T05:10:53;25.57;;;13.73;;
70842;SDS011;58469;52.312;16.970;2024-03-07T05:13:53;28.30;;;14.23;;
70842;SDS011;58469;52.312;16.970;2024-03-07T05:16:53;27.43;;;12.40;;
70842;SDS011;58469;52.312;16.970;2024-03-07T05:20:08;28.83;;;14.00;;
70842;SDS011;58469;52.312;16.970;2024-03-07T05:23:12;28.55;;;14.70;;
70842;SDS011;58469;52.312;16.970;2024-03-07T05:26:13;27.67;;;13.60;;
70842;SDS011;58469;52.312;16.970;2024-03-07T05:29:13;31.20;;;14.77;;
70842;SDS011;58469;52.312;16.970;2024-03-07T05:32:22;30.83;;;14.98;;
70842;SDS011;58469;52.312;16.970;2024-03-07T05:35:25;31.92;;;15.45;;
70842;SDS011;58469;52.312;16.970;2024-03-07T05:38:29;27.93;;;14.57;;
70842;SDS011;58469;52.312;16.970;2024-03-07T05:41:29;28.97;;;13.83;;
70842;SDS011;58469;52.312;16.970;2024-03-07T05:44:29;25.17;;;11.67;;
70842;SDS011;58469;52.312;16.970;2024-03-07T05:47:30;32.30;;;15.73;;
70842;SDS011;58469;52.312;16.970;2024-03-07T05:50:30;28.75;;;13.65;;
70842;SDS011;58469;52.312;16.970;2024-03-07T05:53:30;27.27;;;13.00;;
70842;SDS011;58469;52.312;16.970;2024-03-07T05:56:31;30.33;;;13.83;;
70842;SDS011;58469;52.312;16.970;2024-03-07T05:59:31;29.37;;;14.43;;
70842;SDS011;58469;52.312;16.970;2024-03-07T06:02:32;31.00;;;14.07;;
70842;SDS011;58469;52.312;16.970;2024-03-07T06:05:33;30.40;;;15.13;;
70842;SDS011;58469;52.312;16.970;2024-03-07T06:08:33;25.07;;;12.30;;
70842;SDS011;58469;52.312;16.970;2024-03-07T06:11:34;29.27;;;13.93;;
70842;SDS011;58469;52.312;16.970;2024-03-07T06:14:35;29.45;;;14.70;;
70842;SDS011;58469;52.312;16.970;2024-03-07T06:17:35;31.77;;;16.00;;
70842;SDS011;58469;52.312;16.970;2024-03-07T06:20:36;29.20;;;13.57;;
70842;SDS011;58469;52.312;16.970;2024-03-07T06:23:37;34.72;;;16.77;;
70842;SDS011;58469;52.312;16.970;2024-03-07T06:26:38;31.10;;;16.13;;
70842;SDS011;58469;52.312;16.970;2024-03-07T06:29:44;28.10;;;14.43;;
70842;SDS011;58469;52.312;16.970;2024-03-07T06:32:45;24.67;;;14.43;;
70842;SDS011;58469;52.312;16.970;2024-03-07T06:35:45;26.43;;;12.97;;
70842;SDS011;58469;52.312;16.970;2024-03-07T06:38:45;31.27;;;13.88;;
70842;SDS011;58469;52.312;16.970;2024-03-07T06:41:46;26.77;;;14.10;;
70842;SDS011;58469;52.312;16.970;2024-03-07T06:44:47;22.53;;;12.07;;
70842;SDS011;58469;52.312;16.970;2024-03-07T06:47:47;29.93;;;15.63;;
70842;SDS011;58469;52.312;16.970;2024-03-07T06:50:47;29.43;;;14.07;;
70842;SDS011;58469;52.312;16.970;2024-03-07T06:53:48;27.37;;;14.57;;
70842;SDS011;58469;52.312;16.970;2024-03-07T06:56:50;31.83;;;14.00;;
70842;SDS011;58469;52.312;16.970;2024-03-07T06:59:50;26.33;;;13.07;;
70842;SDS011;58469;52.312;16.970;2024-03-07T07:02:51;26.42;;;13.85;;
70842;SDS011;58469;52.312;16.970;2024-03-07T07:05:54;25.60;;;13.90;;
70842;SDS011;58469;52.312;16.970;2024-03-07T07:08:55;29.20;;;14.50;;
70842;SDS011;58469;52.312;16.970;2024-03-07T07:11:55;28.93;;;13.43;;
70842;SDS011;58469;52.312;16.970;2024-03-07T07:14:55;27.77;;;15.37;;
70842;SDS011;58469;52.312;16.970;2024-03-07T07:17:56;29.13;;;14.40;;
70842;SDS011;58469;52.312;16.970;2024-03-07T07:20:56;24.20;;;13.17;;
70842;SDS011;58469;52.312;16.970;2024-03-07T07:23:58;29.85;;;15.30;;
70842;SDS011;58469;52.312;16.970;2024-03-07T07:26:58;25.30;;;13.85;;
70842;SDS011;58469;52.312;16.970;2024-03-07T07:29:59;26.00;;;13.97;;
70842;SDS011;58469;52.312;16.970;2024-03-07T07:32:59;32.03;;;17.03;;
70842;SDS011;58469;52.312;16.970;2024-03-07T07:35:59;29.07;;;15.83;;
70842;SDS011;58469;52.312;16.970;2024-03-07T07:39:00;30.00;;;15.90;;
70842;SDS011;58469;52.312;16.970;2024-03-07T07:42:00;33.70;;;16.60;;
70842;SDS011;58469;52.312;16.970;2024-03-07T07:45:01;27.90;;;15.67;;
70842;SDS011;58469;52.312;16.970;2024-03-07T07:48:01;23.83;;;13.67;;
70842;SDS011;58469;52.312;16.970;2024-03-07T07:51:02;28.98;;;14.65;;
70842;SDS011;58469;52.312;16.970;2024-03-07T07:54:05;26.13;;;14.68;;
70842;SDS011;58469;52.312;16.970;2024-03-07T07:57:05;40.97;;;16.33;;
70842;SDS011;58469;52.312;16.970;2024-03-07T08:00:06;23.60;;;13.73;;
70842;SDS011;58469;52.312;16.970;2024-03-07T08:03:09;28.13;;;13.85;;
70842;SDS011;58469;52.312;16.970;2024-03-07T08:06:10;24.80;;;15.43;;
70842;SDS011;58469;52.312;16.970;2024-03-07T08:09:10;25.52;;;12.73;;
70842;SDS011;58469;52.312;16.970;2024-03-07T08:12:11;24.67;;;13.50;;
70842;SDS011;58469;52.312;16.970;2024-03-07T08:15:12;27.57;;;14.70;;
70842;SDS011;58469;52.312;16.970;2024-03-07T08:18:16;23.20;;;11.63;;
70842;SDS011;58469;52.312;16.970;2024-03-07T08:21:17;25.08;;;12.02;;
70842;SDS011;58469;52.312;16.970;2024-03-07T08:24:17;25.07;;;13.10;;
70842;SDS011;58469;52.312;16.970;2024-03-07T08:27:17;22.97;;;12.33;;
70842;SDS011;58469;52.312;16.970;2024-03-07T08:30:18;21.13;;;12.27;;
70842;SDS011;58469;52.312;16.970;2024-03-07T08:33:18;20.63;;;12.33;;
70842;SDS011;58469;52.312;16.970;2024-03-07T08:36:21;20.80;;;12.27;;
70842;SDS011;58469;52.312;16.970;2024-03-07T08:39:22;18.45;;;11.55;;
70842;SDS011;58469;52.312;16.970;2024-03-07T08:42:23;22.17;;;11.50;;
70842;SDS011;58469;52.312;16.970;2024-03-07T08:45:24;23.63;;;13.47;;
70842;SDS011;58469;52.312;16.970;2024-03-07T08:48:25;24.63;;;13.13;;
70842;SDS011;58469;52.312;16.970;2024-03-07T08:51:26;23.37;;;11.87;;
70842;SDS011;58469;52.312;16.970;2024-03-07T08:54:26;22.27;;;12.30;;
70842;SDS011;58469;52.312;16.970;2024-03-07T08:57:26;15.63;;;10.90;;
70842;SDS011;58469;52.312;16.970;2024-03-07T09:00:26;18.03;;;10.33;;
70842;SDS011;58469;52.312;16.970;2024-03-07T09:03:27;18.08;;;10.00;;
70842;SDS011;58469;52.312;16.970;2024-03-07T09:06:28;19.77;;;10.23;;
70842;SDS011;58469;52.312;16.970;2024-03-07T09:09:29;12.25;;;8.95;;
70842;SDS011;58469;52.312;16.970;2024-03-07T09:12:29;15.53;;;8.67;;
70842;SDS011;58469;52.312;16.970;2024-03-07T09:15:29;15.27;;;8.43;;
70842;SDS011;58469;52.312;16.970;2024-03-07T09:18:30;16.20;;;8.73;;
70842;SDS011;58469;52.312;16.970;2024-03-07T09:21:30;14.87;;;9.27;;
70842;SDS011;58469;52.312;16.970;2024-03-07T09:24:30;15.93;;;8.60;;
70842;SDS011;58469;52.312;16.970;2024-03-07T09:27:31;15.23;;;9.07;;
70842;SDS011;58469;52.312;16.970;2024-03-07T09:30:31;15.30;;;8.77;;
70842;SDS011;58469;52.312;16.970;2024-03-07T09:33:31;14.10;;;9.07;;
70842;SDS011;58469;52.312;16.970;2024-03-07T09:36:32;17.23;;;9.13;;
70842;SDS011;58469;52.312;16.970;2024-03-07T09:39:32;15.17;;;8.97;;
70842;SDS011;58469;52.312;16.970;2024-03-07T09:42:34;15.50;;;8.80;;
70842;SDS011;58469;52.312;16.970;2024-03-07T09:45:41;16.92;;;8.88;;
70842;SDS011;58469;52.312;16.970;2024-03-07T09:48:42;14.87;;;8.43;;
70842;SDS011;58469;52.312;16.970;2024-03-07T09:51:44;15.73;;;8.55;;
70842;SDS011;58469;52.312;16.970;2024-03-07T09:54:45;15.35;;;8.30;;
70842;SDS011;58469;52.312;16.970;2024-03-07T09:57:46;15.37;;;9.50;;
70842;SDS011;58469;52.312;16.970;2024-03-07T10:00:47;17.30;;;8.65;;
70842;SDS011;58469;52.312;16.970;2024-03-07T10:03:52;10.57;;;7.10;;
70842;SDS011;58469;52.312;16.970;2024-03-07T10:06:58;14.95;;;8.52;;
70842;SDS011;58469;52.312;16.970;2024-03-07T10:09:58;17.97;;;9.80;;
70842;SDS011;58469;52.312;16.970;2024-03-07T10:13:00;16.48;;;8.77;;
70842;SDS011;58469;52.312;16.970;2024-03-07T10:16:00;15.53;;;9.40;;
70842;SDS011;58469;52.312;16.970;2024-03-07T10:19:04;17.95;;;8.98;;
70842;SDS011;58469;52.312;16.970;2024-03-07T10:22:04;16.30;;;9.40;;
70842;SDS011;58469;52.312;16.970;2024-03-07T10:25:06;15.75;;;8.73;;
70842;SDS011;58469;52.312;16.970;2024-03-07T10:28:08;19.23;;;9.75;;
70842;SDS011;58469;52.312;16.970;2024-03-07T10:31:11;17.07;;;9.33;;
70842;SDS011;58469;52.312;16.970;2024-03-07T10:34:11;15.23;;;8.48;;
70842;SDS011;58469;52.312;16.970;2024-03-07T10:37:15;14.23;;;8.30;;
70842;SDS011;58469;52.312;16.970;2024-03-07T10:40:21;16.80;;;9.33;;
70842;SDS011;58469;52.312;16.970;2024-03-07T10:43:26;14.80;;;7.82;;
70842;SDS011;58469;52.312;16.970;2024-03-07T10:46:29;17.10;;;9.02;;
70842;SDS011;58469;52.312;16.970;2024-03-07T10:49:31;14.83;;;9.20;;
70842;SDS011;58469;52.312;16.970;2024-03-07T10:52:40;14.85;;;8.73;;
70842;SDS011;58469;52.312;16.970;2024-03-07T10:58:57;15.68;;;8.77;;
70842;SDS011;58469;52.312;16.970;2024-03-07T11:02:06;14.27;;;7.90;;
70842;SDS011;58469;52.312;16.970;2024-03-07T11:05:16;13.20;;;7.70;;
70842;SDS011;58469;52.312;16.970;2024-03-07T11:08:16;15.07;;;8.63;;
70842;SDS011;58469;52.312;16.970;2024-03-07T11:11:18;15.95;;;9.68;;
70842;SDS011;58469;52.312;16.970;2024-03-07T11:14:18;13.00;;;9.00;;
70842;SDS011;58469;52.312;16.970;2024-03-07T11:17:20;13.07;;;8.07;;
70842;SDS011;58469;52.312;16.970;2024-03-07T11:23:32;12.30;;;7.50;;
70842;SDS011;58469;52.312;16.970;2024-03-07T11:26:41;10.90;;;6.43;;
70842;SDS011;58469;52.312;16.970;2024-03-07T11:29:48;11.57;;;6.30;;
70842;SDS011;58469;52.312;16.970;2024-03-07T11:33:01;11.80;;;6.05;;
70842;SDS011;58469;52.312;16.970;2024-03-07T11:36:02;11.38;;;7.10;;
70842;SDS011;58469;52.312;16.970;2024-03-07T11:39:04;10.60;;;6.80;;
70842;SDS011;58469;52.312;16.970;2024-03-07T11:42:27;13.20;;;7.75;;
70842;SDS011;58469;52.312;16.970;2024-03-07T11:45:30;13.63;;;7.50;;
70842;SDS011;58469;52.312;16.970;2024-03-07T11:48:38;11.77;;;6.37;;
70842;SDS011;58469;52.312;16.970;2024-03-07T11:51:41;11.30;;;7.00;;
70842;SDS011;58469;52.312;16.970;2024-03-07T11:54:42;13.03;;;7.50;;
70842;SDS011;58469;52.312;16.970;2024-03-07T11:57:49;10.20;;;7.20;;
70842;SDS011;58469;52.312;16.970;2024-03-07T12:00:51;13.48;;;6.50;;
70842;SDS011;58469;52.312;16.970;2024-03-07T12:03:51;12.00;;;6.20;;
70842;SDS011;58469;52.312;16.970;2024-03-07T12:06:52;10.93;;;6.80;;
70842;SDS011;58469;52.312;16.970;2024-03-07T12:09:53;12.43;;;7.10;;
70842;SDS011;58469;52.312;16.970;2024-03-07T12:12:56;12.05;;;7.30;;
70842;SDS011;58469;52.312;16.970;2024-03-07T12:15:56;13.10;;;7.73;;
70842;SDS011;58469;52.312;16.970;2024-03-07T12:18:58;12.55;;;7.88;;
70842;SDS011;58469;52.312;16.970;2024-03-07T12:22:01;13.50;;;6.93;;
70842;SDS011;58469;52.312;16.970;2024-03-07T12:25:03;15.57;;;6.93;;
70842;SDS011;58469;52.312;16.970;2024-03-07T12:28:09;14.03;;;7.33;;
70842;SDS011;58469;52.312;16.970;2024-03-07T12:31:11;10.95;;;6.32;;
70842;SDS011;58469;52.312;16.970;2024-03-07T12:34:17;12.73;;;7.38;;
70842;SDS011;58469;52.312;16.970;2024-03-07T12:37:17;12.63;;;7.13;;
70842;SDS011;58469;52.312;16.970;2024-03-07T12:40:19;13.68;;;7.90;;
70842;SDS011;58469;52.312;16.970;2024-03-07T12:43:20;9.63;;;6.00;;
70842;SDS011;58469;52.312;16.970;2024-03-07T12:46:21;12.20;;;7.38;;
70842;SDS011;58469;52.312;16.970;2024-03-07T12:49:22;12.00;;;7.40;;
70842;SDS011;58469;52.312;16.970;2024-03-07T12:52:27;9.00;;;6.15;;
70842;SDS011;58469;52.312;16.970;2024-03-07T12:55:27;9.63;;;6.33;;
70842;SDS011;58469;52.312;16.970;2024-03-07T12:58:28;11.18;;;7.05;;
70842;SDS011;58469;52.312;16.970;2024-03-07T13:01:30;12.35;;;7.45;;
70842;SDS011;58469;52.312;16.970;2024-03-07T13:04:33;11.77;;;7.03;;
70842;SDS011;58469;52.312;16.970;2024-03-07T13:07:34;15.43;;;8.43;;
70842;SDS011;58469;52.312;16.970;2024-03-07T13:10:34;12.13;;;7.23;;
70842;SDS011;58469;52.312;16.970;2024-03-07T13:13:35;12.50;;;7.22;;
70842;SDS011;58469;52.312;16.970;2024-03-07T13:16:35;11.20;;;7.28;;
70842;SDS011;58469;52.312;16.970;2024-03-07T13:19:36;14.17;;;7.23;;
70842;SDS011;58469;52.312;16.970;2024-03-07T13:22:40;13.07;;;8.38;;
70842;SDS011;58469;52.312;16.970;2024-03-07T13:25:44;11.77;;;7.70;;
70842;SDS011;58469;52.312;16.970;2024-03-07T13:28:44;10.70;;;6.68;;
70842;SDS011;58469;52.312;16.970;2024-03-07T13:31:45;11.93;;;7.20;;
70842;SDS011;58469;52.312;16.970;2024-03-07T13:34:45;14.87;;;7.63;;
70842;SDS011;58469;52.312;16.970;2024-03-07T13:37:46;11.73;;;6.67;;
70842;SDS011;58469;52.312;16.970;2024-03-07T13:40:50;15.40;;;7.63;;
70842;SDS011;58469;52.312;16.970;2024-03-07T13:43:50;11.17;;;7.20;;
70842;SDS011;58469;52.312;16.970;2024-03-07T13:46:51;13.13;;;7.57;;
70842;SDS011;58469;52.312;16.970;2024-03-07T13:49:52;15.50;;;7.80;;
70842;SDS011;58469;52.312;16.970;2024-03-07T13:52:54;12.00;;;7.30;;
70842;SDS011;58469;52.312;16.970;2024-03-07T14:02:41;11.15;;;6.93;;
70842;SDS011;58469;52.312;16.970;2024-03-07T14:12:38;15.00;;;7.82;;
70842;SDS011;58469;52.312;16.970;2024-03-07T14:19:40;13.75;;;7.55;;
70842;SDS011;58469;52.312;16.970;2024-03-07T14:29:43;14.93;;;7.90;;
70842;SDS011;58469;52.312;16.970;2024-03-07T14:32:53;13.40;;;7.60;;
70842;SDS011;58469;52.312;16.970;2024-03-07T14:39:05;13.80;;;7.27;;
70842;SDS011;58469;52.312;16.970;2024-03-07T14:42:06;13.82;;;7.93;;
70842;SDS011;58469;52.312;16.970;2024-03-07T14:45:11;13.23;;;7.73;;
70842;SDS011;58469;52.312;16.970;2024-03-07T14:48:17;12.20;;;7.63;;
70842;SDS011;58469;52.312;16.970;2024-03-07T14:51:18;14.38;;;7.78;;
70842;SDS011;58469;52.312;16.970;2024-03-07T14:54:22;15.50;;;7.27;;
70842;SDS011;58469;52.312;16.970;2024-03-07T14:57:22;14.60;;;7.55;;
70842;SDS011;58469;52.312;16.970;2024-03-07T15:00:23;14.63;;;6.80;;
70842;SDS011;58469;52.312;16.970;2024-03-07T15:03:27;13.70;;;7.68;;
70842;SDS011;58469;52.312;16.970;2024-03-07T15:06:30;12.40;;;7.13;;
70842;SDS011;58469;52.312;16.970;2024-03-07T15:09:34;12.27;;;6.93;;
70842;SDS011;58469;52.312;16.970;2024-03-07T15:12:35;13.18;;;7.13;;
70842;SDS011;58469;52.312;16.970;2024-03-07T15:15:35;12.93;;;7.93;;
70842;SDS011;58469;52.312;16.970;2024-03-07T15:18:35;13.17;;;7.53;;
70842;SDS011;58469;52.312;16.970;2024-03-07T15:21:36;13.67;;;7.57;;
70842;SDS011;58469;52.312;16.970;2024-03-07T15:24:39;14.80;;;6.72;;
70842;SDS011;58469;52.312;16.970;2024-03-07T15:27:40;16.60;;;8.23;;
70842;SDS011;58469;52.312;16.970;2024-03-07T15:30:41;14.75;;;8.07;;
70842;SDS011;58469;52.312;16.970;2024-03-07T15:33:42;11.93;;;7.13;;
70842;SDS011;58469;52.312;16.970;2024-03-07T15:36:44;17.08;;;9.07;;
70842;SDS011;58469;52.312;16.970;2024-03-07T15:39:44;14.47;;;8.40;;
70842;SDS011;58469;52.312;16.970;2024-03-07T15:42:48;16.45;;;9.20;;
70842;SDS011;58469;52.312;16.970;2024-03-07T15:45:52;16.05;;;8.40;;
70842;SDS011;58469;52.312;16.970;2024-03-07T15:48:52;14.23;;;7.90;;
70842;SDS011;58469;52.312;16.970;2024-03-07T15:51:52;12.67;;;7.37;;
70842;SDS011;58469;52.312;16.970;2024-03-07T15:54:53;16.30;;;8.80;;
70842;SDS011;58469;52.312;16.970;2024-03-07T15:57:55;16.05;;;8.23;;
70842;SDS011;58469;52.312;16.970;2024-03-07T16:00:56;17.60;;;7.90;;
70842;SDS011;58469;52.312;16.970;2024-03-07T16:03:56;16.50;;;8.47;;
70842;SDS011;58469;52.312;16.970;2024-03-07T16:06:57;14.82;;;7.93;;
70842;SDS011;58469;52.312;16.970;2024-03-07T16:09:58;13.55;;;7.70;;
70842;SDS011;58469;52.312;16.970;2024-03-07T16:12:59;15.85;;;7.97;;
70842;SDS011;58469;52.312;16.970;2024-03-07T16:16:01;14.17;;;7.33;;
70842;SDS011;58469;52.312;16.970;2024-03-07T16:19:04;12.48;;;7.90;;
70842;SDS011;58469;52.312;16.970;2024-03-07T16:22:05;14.27;;;8.10;;
70842;SDS011;58469;52.312;16.970;2024-03-07T16:25:06;14.87;;;8.80;;
70842;SDS011;58469;52.312;16.970;2024-03-07T16:28:07;11.93;;;7.25;;
70842;SDS011;58469;52.312;16.970;2024-03-07T16:31:10;12.68;;;6.82;;
70842;SDS011;58469;52.312;16.970;2024-03-07T16:34:11;13.50;;;7.90;;
70842;SDS011;58469;52.312;16.970;2024-03-07T16:37:11;12.53;;;7.00;;
70842;SDS011;58469;52.312;16.970;2024-03-07T16:40:14;12.52;;;6.82;;
70842;SDS011;58469;52.312;16.970;2024-03-07T16:43:15;14.27;;;7.57;;
70842;SDS011;58469;52.312;16.970;2024-03-07T16:46:16;13.45;;;7.80;;
70842;SDS011;58469;52.312;16.970;2024-03-07T16:49:18;12.52;;;7.30;;
70842;SDS011;58469;52.312;16.970;2024-03-07T16:52:18;13.43;;;8.00;;
70842;SDS011;58469;52.312;16.970;2024-03-07T16:55:19;16.42;;;8.63;;
70842;SDS011;58469;52.312;16.970;2024-03-07T16:58:20;16.92;;;9.15;;
70842;SDS011;58469;52.312;16.970;2024-03-07T17:01:22;14.50;;;8.10;;
70842;SDS011;58469;52.312;16.970;2024-03-07T17:04:24;14.85;;;8.30;;
70842;SDS011;58469;52.312;16.970;2024-03-07T17:07:24;14.17;;;7.57;;
70842;SDS011;58469;52.312;16.970;2024-03-07T17:10:24;12.60;;;7.30;;
70842;SDS011;58469;52.312;16.970;2024-03-07T17:13:25;12.90;;;7.30;;
70842;SDS011;58469;52.312;16.970;2024-03-07T17:16:25;13.38;;;7.00;;
70842;SDS011;58469;52.312;16.970;2024-03-07T17:19:26;12.40;;;7.37;;
70842;SDS011;58469;52.312;16.970;2024-03-07T17:22:26;18.27;;;8.97;;
70842;SDS011;58469;52.312;16.970;2024-03-07T17:25:27;19.27;;;9.27;;
70842;SDS011;58469;52.312;16.970;2024-03-07T17:28:30;16.20;;;7.72;;
70842;SDS011;58469;52.312;16.970;2024-03-07T17:31:32;17.67;;;8.80;;
70842;SDS011;58469;52.312;16.970;2024-03-07T17:34:32;14.30;;;8.23;;
70842;SDS011;58469;52.312;16.970;2024-03-07T17:37:32;11.60;;;6.37;;
70842;SDS011;58469;52.312;16.970;2024-03-07T17:40:35;11.95;;;6.10;;
70842;SDS011;58469;52.312;16.970;2024-03-07T17:43:35;10.90;;;6.70;;
70842;SDS011;58469;52.312;16.970;2024-03-07T17:46:37;10.75;;;5.78;;
70842;SDS011;58469;52.312;16.970;2024-03-07T17:49:37;16.47;;;7.53;;
70842;SDS011;58469;52.312;16.970;2024-03-07T17:52:39;16.05;;;8.48;;
70842;SDS011;58469;52.312;16.970;2024-03-07T17:55:40;16.83;;;9.60;;
70842;SDS011;58469;52.312;16.970;2024-03-07T17:58:43;15.23;;;8.60;;
70842;SDS011;58469;52.312;16.970;2024-03-07T18:01:44;22.67;;;10.87;;
70842;SDS011;58469;52.312;16.970;2024-03-07T18:04:44;20.10;;;10.80;;
70842;SDS011;58469;52.312;16.970;2024-03-07T18:07:49;18.67;;;10.68;;
70842;SDS011;58469;52.312;16.970;2024-03-07T18:10:50;18.77;;;10.33;;